sensor_id;sensor_type;location;lat;lon;timestamp;pressure;altitude;pressure_sealevel;temperature;humidity
23118;BME280;11728;50.624;6.014;2023-05-12T00:04:38;98188.25;;;13.79;100.00
23118;BME280;11728;50.624;6.014;2023-05-12T00:09:59;98188.16;;;13.82;100.00
23118;BME280;11728;50.624;6.014;2023-05-12T00:15:21;98185.53;;;13.80;100.00
23118;BME280;11728;50.624;6.014;2023-05-12T00:20:42;98179.47;;;13.77;100.00
23118;BME280;11728;50.624;6.014;2023-05-12T00:26:03;98181.53;;;13.69;100.00
23118;BME280;11728;50.624;6.014;2023-05-12T00:31:24;98177.97;;;13.70;100.00
23118;BME280;11728;50.624;6.014;2023-05-12T00:36:45;98184.91;;;13.74;100.00
23118;BME280;11728;50.624;6.014;2023-05-12T00:42:05;98177.72;;;13.77;100.00
23118;BME280;11728;50.624;6.014;2023-05-12T00:47:27;98170.72;;;13.75;100.00
23118;BME280;11728;50.624;6.014;2023-05-12T00:52:48;98167.09;;;13.77;100.00
23118;BME280;11728;50.624;6.014;2023-05-12T00:58:09;98174.22;;;13.75;100.00
23118;BME280;11728;50.624;6.014;2023-05-12T01:03:30;98166.38;;;13.72;100.00
23118;BME280;11728;50.624;6.014;2023-05-12T01:08:51;98153.16;;;13.71;100.00
23118;BME280;11728;50.624;6.014;2023-05-12T01:14:12;98154.06;;;13.71;100.00
23118;BME280;11728;50.624;6.014;2023-05-12T01:19:53;98143.47;;;13.70;100.00
23118;BME280;11728;50.624;6.014;2023-05-12T01:25:14;98146.13;;;13.70;100.00
23118;BME280;11728;50.624;6.014;2023-05-12T01:30:35;98143.47;;;13.70;100.00
23118;BME280;11728;50.624;6.014;2023-05-12T01:35:58;98141.69;;;13.70;100.00
23118;BME280;11728;50.624;6.014;2023-05-12T01:41:19;98138.16;;;13.70;100.00
23118;BME280;11728;50.624;6.014;2023-05-12T01:46:40;98138.16;;;13.70;100.00
23118;BME280;11728;50.624;6.014;2023-05-12T01:52:01;98138.00;;;13.74;100.00
23118;BME280;11728;50.624;6.014;2023-05-12T01:57:22;98130.09;;;13.73;100.00
23118;BME280;11728;50.624;6.014;2023-05-12T02:02:43;98141.63;;;13.72;100.00
23118;BME280;11728;50.624;6.014;2023-05-12T02:08:04;98137.34;;;13.68;100.00
23118;BME280;11728;50.624;6.014;2023-05-12T02:13:24;98125.06;;;13.65;100.00
23118;BME280;11728;50.624;6.014;2023-05-12T02:18:45;98132.28;;;13.62;100.00
23118;BME280;11728;50.624;6.014;2023-05-12T02:24:06;98127.88;;;13.61;100.00
23118;BME280;11728;50.624;6.014;2023-05-12T02:29:27;98116.59;;;13.56;100.00
23118;BME280;11728;50.624;6.014;2023-05-12T02:34:48;98117.41;;;13.58;100.00
23118;BME280;11728;50.624;6.014;2023-05-12T02:40:10;98110.28;;;13.58;100.00
23118;BME280;11728;50.624;6.014;2023-05-12T02:45:30;98109.53;;;13.55;100.00
23118;BME280;11728;50.624;6.014;2023-05-12T02:50:51;98097.19;;;13.54;100.00
23118;BME280;11728;50.624;6.014;2023-05-12T02:56:12;98091.91;;;13.54;100.00
23118;BME280;11728;50.624;6.014;2023-05-12T03:01:33;98096.28;;;13.55;100.00
23118;BME280;11728;50.624;6.014;2023-05-12T03:06:53;98090.13;;;13.54;100.00
23118;BME280;11728;50.624;6.014;2023-05-12T03:12:14;98086.72;;;13.51;100.00
23118;BME280;11728;50.624;6.014;2023-05-12T03:17:35;98086.00;;;13.46;100.00
23118;BME280;11728;50.624;6.014;2023-05-12T03:22:56;98078.06;;;13.46;100.00
23118;BME280;11728;50.624;6.014;2023-05-12T03:28:17;98073.47;;;13.51;100.00
23118;BME280;11728;50.624;6.014;2023-05-12T03:33:38;98074.63;;;13.44;100.00
23118;BME280;11728;50.624;6.014;2023-05-12T03:38:58;98065.00;;;13.41;100.00
23118;BME280;11728;50.624;6.014;2023-05-12T03:44:19;98053.50;;;13.41;100.00
23118;BME280;11728;50.624;6.014;2023-05-12T03:49:40;98061.75;;;13.33;100.00
23118;BME280;11728;50.624;6.014;2023-05-12T03:55:01;98051.34;;;13.27;100.00
23118;BME280;11728;50.624;6.014;2023-05-12T04:00:22;98047.03;;;13.25;100.00
23118;BME280;11728;50.624;6.014;2023-05-12T04:05:42;98050.50;;;13.27;100.00
23118;BME280;11728;50.624;6.014;2023-05-12T04:11:03;98054.94;;;13.26;100.00
23118;BME280;11728;50.624;6.014;2023-05-12T04:16:24;98059.03;;;13.35;100.00
23118;BME280;11728;50.624;6.014;2023-05-12T04:21:45;98061.63;;;13.36;100.00
23118;BME280;11728;50.624;6.014;2023-05-12T04:27:06;98058.72;;;13.42;100.00
23118;BME280;11728;50.624;6.014;2023-05-12T04:32:27;98061.28;;;13.45;100.00
23118;BME280;11728;50.624;6.014;2023-05-12T04:37:47;98054.13;;;13.47;100.00
23118;BME280;11728;50.624;6.014;2023-05-12T04:43:08;98060.19;;;13.51;100.00
23118;BME280;11728;50.624;6.014;2023-05-12T04:48:29;98063.75;;;13.50;100.00
23118;BME280;11728;50.624;6.014;2023-05-12T04:53:50;98068.97;;;13.53;100.00
23118;BME280;11728;50.624;6.014;2023-05-12T04:59:10;98070.56;;;13.57;100.00
23118;BME280;11728;50.624;6.014;2023-05-12T05:04:31;98070.56;;;13.57;100.00
23118;BME280;11728;50.624;6.014;2023-05-12T05:09:52;98086.50;;;13.57;100.00
23118;BME280;11728;50.624;6.014;2023-05-12T05:15:13;98088.09;;;13.61;100.00
23118;BME280;11728;50.624;6.014;2023-05-12T05:20:34;98091.44;;;13.66;100.00
23118;BME280;11728;50.624;6.014;2023-05-12T05:25:55;98092.13;;;13.71;100.00
23118;BME280;11728;50.624;6.014;2023-05-12T05:31:16;98085.81;;;13.75;100.00
23118;BME280;11728;50.624;6.014;2023-05-12T05:36:37;98090.22;;;13.74;100.00
23118;BME280;11728;50.624;6.014;2023-05-12T05:41:57;98096.75;;;13.66;100.00
23118;BME280;11728;50.624;6.014;2023-05-12T05:47:18;98099.19;;;13.72;100.00
23118;BME280;11728;50.624;6.014;2023-05-12T05:52:39;98093.56;;;13.79;100.00
23118;BME280;11728;50.624;6.014;2023-05-12T05:57:59;98110.19;;;13.84;100.00
23118;BME280;11728;50.624;6.014;2023-05-12T06:03:22;98104.91;;;13.82;100.00
23118;BME280;11728;50.624;6.014;2023-05-12T06:08:42;98107.78;;;13.78;100.00
23118;BME280;11728;50.624;6.014;2023-05-12T06:14:03;98112.94;;;13.81;100.00
23118;BME280;11728;50.624;6.014;2023-05-12T06:19:24;98125.03;;;13.89;100.00
23118;BME280;11728;50.624;6.014;2023-05-12T06:24:45;98127.69;;;13.89;100.00
23118;BME280;11728;50.624;6.014;2023-05-12T06:30:06;98128.34;;;13.94;100.00
23118;BME280;11728;50.624;6.014;2023-05-12T06:35:27;98134.53;;;13.95;100.00
23118;BME280;11728;50.624;6.014;2023-05-12T06:40:48;98138.47;;;14.08;100.00
23118;BME280;11728;50.624;6.014;2023-05-12T06:46:09;98139.09;;;14.14;100.00
23118;BME280;11728;50.624;6.014;2023-05-12T06:51:30;98139.00;;;14.60;100.00
23118;BME280;11728;50.624;6.014;2023-05-12T06:56:50;98143.41;;;15.02;100.00
23118;BME280;11728;50.624;6.014;2023-05-12T07:02:11;98140.28;;;15.13;100.00
23118;BME280;11728;50.624;6.014;2023-05-12T07:07:32;98141.59;;;15.23;100.00
23118;BME280;11728;50.624;6.014;2023-05-12T07:12:53;98145.19;;;15.22;100.00
23118;BME280;11728;50.624;6.014;2023-05-12T07:18:13;98144.84;;;15.09;100.00
23118;BME280;11728;50.624;6.014;2023-05-12T07:23:35;98150.38;;;15.05;100.00
23118;BME280;11728;50.624;6.014;2023-05-12T07:28:56;98162.78;;;15.04;100.00
23118;BME280;11728;50.624;6.014;2023-05-12T07:34:20;98147.44;;;15.11;100.00
23118;BME280;11728;50.624;6.014;2023-05-12T07:39:40;98148.69;;;15.43;100.00
23118;BME280;11728;50.624;6.014;2023-05-12T07:45:01;98150.66;;;15.58;100.00
23118;BME280;11728;50.624;6.014;2023-05-12T07:50:22;98153.81;;;15.48;100.00
23118;BME280;11728;50.624;6.014;2023-05-12T07:55:43;98146.88;;;15.44;100.00
23118;BME280;11728;50.624;6.014;2023-05-12T08:01:04;98147.47;;;15.50;100.00
23118;BME280;11728;50.624;6.014;2023-05-12T08:06:26;98153.56;;;15.52;100.00
23118;BME280;11728;50.624;6.014;2023-05-12T08:11:46;98155.16;;;15.76;100.00
23118;BME280;11728;50.624;6.014;2023-05-12T08:17:09;98149.56;;;16.01;100.00
23118;BME280;11728;50.624;6.014;2023-05-12T08:22:30;98157.94;;;16.12;99.79
23118;BME280;11728;50.624;6.014;2023-05-12T08:27:51;98171.16;;;15.95;99.61
23118;BME280;11728;50.624;6.014;2023-05-12T08:33:11;98165.75;;;15.96;99.10
23118;BME280;11728;50.624;6.014;2023-05-12T08:38:32;98164.47;;;15.86;98.77
23118;BME280;11728;50.624;6.014;2023-05-12T08:43:53;98174.63;;;15.97;99.20
23118;BME280;11728;50.624;6.014;2023-05-12T08:49:19;98176.00;;;16.23;98.38
23118;BME280;11728;50.624;6.014;2023-05-12T08:54:40;98175.59;;;16.51;97.49
23118;BME280;11728;50.624;6.014;2023-05-12T09:00:03;98179.66;;;16.76;97.00
23118;BME280;11728;50.624;6.014;2023-05-12T09:05:26;98188.59;;;17.10;96.12
23118;BME280;11728;50.624;6.014;2023-05-12T09:10:50;98193.13;;;17.08;94.86
23118;BME280;11728;50.624;6.014;2023-05-12T09:16:12;98192.34;;;17.42;94.18
23118;BME280;11728;50.624;6.014;2023-05-12T09:21:34;98183.88;;;18.15;91.83
23118;BME280;11728;50.624;6.014;2023-05-12T09:26:54;98194.25;;;18.53;89.66
23118;BME280;11728;50.624;6.014;2023-05-12T09:32:15;98196.22;;;18.18;88.03
23118;BME280;11728;50.624;6.014;2023-05-12T09:37:37;98204.19;;;17.87;88.82
23118;BME280;11728;50.624;6.014;2023-05-12T09:42:58;98202.78;;;17.80;88.70
23118;BME280;11728;50.624;6.014;2023-05-12T09:48:18;98200.25;;;17.77;89.85
23118;BME280;11728;50.624;6.014;2023-05-12T09:53:40;98213.59;;;17.94;87.93
23118;BME280;11728;50.624;6.014;2023-05-12T09:59:09;98221.47;;;17.80;87.10
23118;BME280;11728;50.624;6.014;2023-05-12T10:04:39;98218.88;;;18.28;86.68
23118;BME280;11728;50.624;6.014;2023-05-12T10:10:02;98217.03;;;19.22;84.69
23118;BME280;11728;50.624;6.014;2023-05-12T10:15:25;98227.06;;;19.19;83.23
23118;BME280;11728;50.624;6.014;2023-05-12T10:20:47;98237.56;;;18.60;83.78
23118;BME280;11728;50.624;6.014;2023-05-12T10:26:09;98242.81;;;17.97;83.35
23118;BME280;11728;50.624;6.014;2023-05-12T10:31:31;98241.75;;;17.84;81.50
23118;BME280;11728;50.624;6.014;2023-05-12T10:36:44;98243.19;;;18.23;81.30
23118;BME280;11728;50.624;6.014;2023-05-12T10:42:08;98234.84;;;18.61;78.91
23118;BME280;11728;50.624;6.014;2023-05-12T10:47:36;98243.84;;;18.44;76.21
23118;BME280;11728;50.624;6.014;2023-05-12T10:52:57;98252.38;;;18.35;75.85
23118;BME280;11728;50.624;6.014;2023-05-12T10:58:18;98258.06;;;18.29;74.93
23118;BME280;11728;50.624;6.014;2023-05-12T11:03:39;98242.44;;;19.31;71.93
23118;BME280;11728;50.624;6.014;2023-05-12T11:09:00;98247.41;;;20.94;65.67
23118;BME280;11728;50.624;6.014;2023-05-12T11:14:21;98239.84;;;22.04;62.75
23118;BME280;11728;50.624;6.014;2023-05-12T11:19:47;98249.56;;;22.56;60.48
23118;BME280;11728;50.624;6.014;2023-05-12T11:25:09;98262.19;;;22.31;58.30
23118;BME280;11728;50.624;6.014;2023-05-12T11:30:30;98263.13;;;20.44;61.67
23118;BME280;11728;50.624;6.014;2023-05-12T11:35:51;98268.75;;;20.12;63.28
23118;BME280;11728;50.624;6.014;2023-05-12T11:41:12;98275.47;;;19.45;64.34
23118;BME280;11728;50.624;6.014;2023-05-12T11:46:33;98275.94;;;19.67;64.96
23118;BME280;11728;50.624;6.014;2023-05-12T11:51:55;98273.63;;;20.19;64.32
23118;BME280;11728;50.624;6.014;2023-05-12T11:57:29;98269.72;;;20.11;65.25
23118;BME280;11728;50.624;6.014;2023-05-12T12:02:51;98281.31;;;19.67;65.64
23118;BME280;11728;50.624;6.014;2023-05-12T12:08:13;98285.59;;;19.85;63.53
23118;BME280;11728;50.624;6.014;2023-05-12T12:13:34;98278.81;;;21.06;60.83
23118;BME280;11728;50.624;6.014;2023-05-12T12:18:55;98274.47;;;22.35;56.33
23118;BME280;11728;50.624;6.014;2023-05-12T12:24:16;98280.84;;;23.20;53.91
23118;BME280;11728;50.624;6.014;2023-05-12T12:29:37;98284.53;;;23.54;51.76
23118;BME280;11728;50.624;6.014;2023-05-12T12:34:57;98287.41;;;22.30;50.63
23118;BME280;11728;50.624;6.014;2023-05-12T12:40:21;98284.59;;;21.00;49.94
23118;BME280;11728;50.624;6.014;2023-05-12T12:45:42;98293.72;;;20.56;51.20
23118;BME280;11728;50.624;6.014;2023-05-12T12:51:03;98295.34;;;20.72;50.53
23118;BME280;11728;50.624;6.014;2023-05-12T12:56:23;98301.41;;;20.76;51.80
23118;BME280;11728;50.624;6.014;2023-05-12T13:01:45;98305.38;;;20.41;53.08
23118;BME280;11728;50.624;6.014;2023-05-12T13:07:06;98309.31;;;19.77;54.41
23118;BME280;11728;50.624;6.014;2023-05-12T13:12:26;98316.16;;;19.67;55.54
23118;BME280;11728;50.624;6.014;2023-05-12T13:17:48;98316.00;;;19.70;56.60
23118;BME280;11728;50.624;6.014;2023-05-12T13:23:09;98328.81;;;19.49;55.87
23118;BME280;11728;50.624;6.014;2023-05-12T13:28:30;98329.81;;;19.62;55.14
23118;BME280;11728;50.624;6.014;2023-05-12T13:33:51;98332.91;;;19.86;54.84
23118;BME280;11728;50.624;6.014;2023-05-12T13:39:11;98336.06;;;19.32;56.17
23118;BME280;11728;50.624;6.014;2023-05-12T13:44:32;98343.84;;;19.21;56.73
23118;BME280;11728;50.624;6.014;2023-05-12T13:49:53;98358.47;;;19.16;57.00
23118;BME280;11728;50.624;6.014;2023-05-12T13:55:15;98349.31;;;19.03;57.01
23118;BME280;11728;50.624;6.014;2023-05-12T14:00:36;98349.06;;;18.59;56.92
23118;BME280;11728;50.624;6.014;2023-05-12T14:05:57;98348.81;;;18.32;58.20
23118;BME280;11728;50.624;6.014;2023-05-12T14:11:18;98349.44;;;18.37;58.40
23118;BME280;11728;50.624;6.014;2023-05-12T14:16:39;98354.16;;;18.32;59.03
23118;BME280;11728;50.624;6.014;2023-05-12T14:22:00;98352.25;;;18.34;59.40
23118;BME280;11728;50.624;6.014;2023-05-12T14:27:21;98361.63;;;18.42;59.59
23118;BME280;11728;50.624;6.014;2023-05-12T14:32:41;98366.75;;;18.30;60.15
23118;BME280;11728;50.624;6.014;2023-05-12T14:38:02;98362.63;;;18.06;61.08
23118;BME280;11728;50.624;6.014;2023-05-12T14:43:23;98373.41;;;17.69;62.87
23118;BME280;11728;50.624;6.014;2023-05-12T14:48:44;98372.88;;;17.26;66.17
23118;BME280;11728;50.624;6.014;2023-05-12T14:54:05;98375.00;;;17.38;67.50
23118;BME280;11728;50.624;6.014;2023-05-12T14:59:28;98377.25;;;17.28;68.56
23118;BME280;11728;50.624;6.014;2023-05-12T15:04:49;98403.91;;;17.10;70.90
23118;BME280;11728;50.624;6.014;2023-05-12T15:10:10;98408.72;;;16.84;74.58
23118;BME280;11728;50.624;6.014;2023-05-12T15:15:30;98399.66;;;17.24;74.65
23118;BME280;11728;50.624;6.014;2023-05-12T15:20:52;98397.72;;;17.46;74.15
23118;BME280;11728;50.624;6.014;2023-05-12T15:26:13;98394.66;;;17.89;72.50
23118;BME280;11728;50.624;6.014;2023-05-12T15:31:34;98394.53;;;18.09;71.74
23118;BME280;11728;50.624;6.014;2023-05-12T15:36:55;98392.91;;;18.23;71.34
23118;BME280;11728;50.624;6.014;2023-05-12T15:42:16;98401.97;;;18.38;70.95
23118;BME280;11728;50.624;6.014;2023-05-12T15:47:36;98396.63;;;18.38;70.19
23118;BME280;11728;50.624;6.014;2023-05-12T15:52:58;98395.97;;;18.33;69.97
23118;BME280;11728;50.624;6.014;2023-05-12T15:58:18;98391.25;;;18.54;69.39
23118;BME280;11728;50.624;6.014;2023-05-12T16:03:39;98388.16;;;18.79;67.96
23118;BME280;11728;50.624;6.014;2023-05-12T16:09:01;98386.00;;;18.85;66.67
23118;BME280;11728;50.624;6.014;2023-05-12T16:14:22;98386.97;;;19.00;64.58
23118;BME280;11728;50.624;6.014;2023-05-12T16:19:43;98371.06;;;19.14;64.44
23118;BME280;11728;50.624;6.014;2023-05-12T16:25:04;98380.31;;;19.39;63.08
23118;BME280;11728;50.624;6.014;2023-05-12T16:30:25;98378.94;;;19.32;61.64
23118;BME280;11728;50.624;6.014;2023-05-12T16:35:45;98379.34;;;19.09;59.83
23118;BME280;11728;50.624;6.014;2023-05-12T16:41:06;98373.31;;;18.89;58.60
23118;BME280;11728;50.624;6.014;2023-05-12T16:46:27;98380.19;;;18.77;57.52
23118;BME280;11728;50.624;6.014;2023-05-12T16:51:48;98381.31;;;18.73;57.67
23118;BME280;11728;50.624;6.014;2023-05-12T16:57:09;98384.78;;;18.58;58.25
23118;BME280;11728;50.624;6.014;2023-05-12T17:02:31;98382.28;;;18.55;58.31
23118;BME280;11728;50.624;6.014;2023-05-12T17:07:52;98386.69;;;18.56;58.71
23118;BME280;11728;50.624;6.014;2023-05-12T17:13:13;98396.34;;;18.59;59.09
23118;BME280;11728;50.624;6.014;2023-05-12T17:18:33;98396.44;;;18.57;59.35
23118;BME280;11728;50.624;6.014;2023-05-12T17:23:54;98408.72;;;18.45;59.21
23118;BME280;11728;50.624;6.014;2023-05-12T17:29:15;98409.91;;;18.39;60.09
23118;BME280;11728;50.624;6.014;2023-05-12T17:34:36;98403.06;;;18.34;60.69
23118;BME280;11728;50.624;6.014;2023-05-12T17:39:57;98407.00;;;18.27;61.35
23118;BME280;11728;50.624;6.014;2023-05-12T17:45:18;98413.28;;;18.26;61.71
23118;BME280;11728;50.624;6.014;2023-05-12T17:50:39;98420.69;;;18.21;62.24
23118;BME280;11728;50.624;6.014;2023-05-12T17:56:00;98436.84;;;18.18;62.64
23118;BME280;11728;50.624;6.014;2023-05-12T18:01:21;98442.94;;;18.03;63.66
23118;BME280;11728;50.624;6.014;2023-05-12T18:06:42;98443.56;;;17.91;64.13
23118;BME280;11728;50.624;6.014;2023-05-12T18:12:03;98448.59;;;17.80;65.31
23118;BME280;11728;50.624;6.014;2023-05-12T18:17:24;98453.25;;;17.75;66.13
23118;BME280;11728;50.624;6.014;2023-05-12T18:22:45;98457.78;;;17.56;66.93
23118;BME280;11728;50.624;6.014;2023-05-12T18:28:06;98457.06;;;17.34;67.84
23118;BME280;11728;50.624;6.014;2023-05-12T18:33:27;98463.91;;;17.20;68.73
23118;BME280;11728;50.624;6.014;2023-05-12T18:38:48;98463.78;;;17.04;69.18
23118;BME280;11728;50.624;6.014;2023-05-12T18:44:09;98462.59;;;16.92;69.47
23118;BME280;11728;50.624;6.014;2023-05-12T18:49:29;98481.47;;;16.87;70.53
23118;BME280;11728;50.624;6.014;2023-05-12T18:54:50;98478.13;;;16.82;71.10
23118;BME280;11728;50.624;6.014;2023-05-12T19:00:11;98484.88;;;16.71;72.01
23118;BME280;11728;50.624;6.014;2023-05-12T19:05:32;98480.47;;;16.50;73.68
23118;BME280;11728;50.624;6.014;2023-05-12T19:10:53;98479.53;;;16.31;75.13
23118;BME280;11728;50.624;6.014;2023-05-12T19:16:14;98500.56;;;16.15;76.35
23118;BME280;11728;50.624;6.014;2023-05-12T19:21:35;98514.28;;;15.85;78.28
23118;BME280;11728;50.624;6.014;2023-05-12T19:26:56;98527.56;;;15.64;79.73
23118;BME280;11728;50.624;6.014;2023-05-12T19:32:17;98525.75;;;15.43;81.30
23118;BME280;11728;50.624;6.014;2023-05-12T19:37:39;98533.09;;;15.37;81.11
23118;BME280;11728;50.624;6.014;2023-05-12T19:43:00;98538.53;;;15.34;80.73
23118;BME280;11728;50.624;6.014;2023-05-12T19:48:21;98538.63;;;15.31;80.78
23118;BME280;11728;50.624;6.014;2023-05-12T19:53:42;98544.19;;;15.25;81.21
23118;BME280;11728;50.624;6.014;2023-05-12T19:59:03;98538.97;;;15.22;81.27
23118;BME280;11728;50.624;6.014;2023-05-12T20:04:24;98552.25;;;15.23;81.11
23118;BME280;11728;50.624;6.014;2023-05-12T20:09:45;98560.06;;;15.28;80.90
23118;BME280;11728;50.624;6.014;2023-05-12T20:15:06;98568.09;;;15.26;81.11
23118;BME280;11728;50.624;6.014;2023-05-12T20:20:28;98575.25;;;15.24;81.14
23118;BME280;11728;50.624;6.014;2023-05-12T20:25:50;98570.91;;;15.22;81.40
23118;BME280;11728;50.624;6.014;2023-05-12T20:31:11;98583.19;;;15.26;81.30
23118;BME280;11728;50.624;6.014;2023-05-12T20:36:32;98578.75;;;15.26;81.62
23118;BME280;11728;50.624;6.014;2023-05-12T20:41:53;98586.75;;;15.25;82.22
23118;BME280;11728;50.624;6.014;2023-05-12T20:47:14;98583.47;;;15.17;83.04
23118;BME280;11728;50.624;6.014;2023-05-12T20:52:38;98585.66;;;15.06;83.74
23118;BME280;11728;50.624;6.014;2023-05-12T20:58:00;98582.63;;;14.92;84.33
23118;BME280;11728;50.624;6.014;2023-05-12T21:03:20;98581.31;;;14.79;84.70
23118;BME280;11728;50.624;6.014;2023-05-12T21:08:43;98590.53;;;14.69;84.75
23118;BME280;11728;50.624;6.014;2023-05-12T21:14:06;98595.19;;;14.62;85.21
23118;BME280;11728;50.624;6.014;2023-05-12T21:19:26;98585.81;;;14.51;85.51
23118;BME280;11728;50.624;6.014;2023-05-12T21:24:47;98602.47;;;14.30;86.48
23118;BME280;11728;50.624;6.014;2023-05-12T21:30:09;98599.66;;;14.07;87.92
23118;BME280;11728;50.624;6.014;2023-05-12T21:35:29;98604.66;;;13.89;88.89
23118;BME280;11728;50.624;6.014;2023-05-12T21:40:50;98600.78;;;13.72;90.50
23118;BME280;11728;50.624;6.014;2023-05-12T21:46:12;98598.47;;;13.61;91.00
23118;BME280;11728;50.624;6.014;2023-05-12T21:51:33;98603.25;;;13.49;92.25
23118;BME280;11728;50.624;6.014;2023-05-12T21:56:53;98610.63;;;13.39;93.47
23118;BME280;11728;50.624;6.014;2023-05-12T22:02:14;98608.28;;;13.29;93.97
23118;BME280;11728;50.624;6.014;2023-05-12T22:07:35;98607.50;;;13.25;94.10
23118;BME280;11728;50.624;6.014;2023-05-12T22:12:56;98616.56;;;13.17;94.06
23118;BME280;11728;50.624;6.014;2023-05-12T22:18:17;98609.91;;;13.03;94.90
23118;BME280;11728;50.624;6.014;2023-05-12T22:23:38;98617.25;;;12.93;95.17
23118;BME280;11728;50.624;6.014;2023-05-12T22:28:59;98618.28;;;12.86;95.18
23118;BME280;11728;50.624;6.014;2023-05-12T22:34:20;98622.03;;;12.78;95.81
23118;BME280;11728;50.624;6.014;2023-05-12T22:39:41;98630.19;;;12.70;96.16
23118;BME280;11728;50.624;6.014;2023-05-12T22:45:02;98627.78;;;12.61;96.58
23118;BME280;11728;50.624;6.014;2023-05-12T22:50:24;98639.44;;;12.54;96.75
23118;BME280;11728;50.624;6.014;2023-05-12T22:55:44;98637.78;;;12.49;96.88
23118;BME280;11728;50.624;6.014;2023-05-12T23:01:06;98636.16;;;12.43;97.09
23118;BME280;11728;50.624;6.014;2023-05-12T23:06:27;98633.63;;;12.39;97.01
23118;BME280;11728;50.624;6.014;2023-05-12T23:11:48;98632.75;;;12.38;97.27
23118;BME280;11728;50.624;6.014;2023-05-12T23:17:08;98632.72;;;12.41;96.97
23118;BME280;11728;50.624;6.014;2023-05-12T23:22:29;98636.03;;;12.49;96.39
23118;BME280;11728;50.624;6.014;2023-05-12T23:27:50;98640.41;;;12.50;96.08
23118;BME280;11728;50.624;6.014;2023-05-12T23:33:11;98632.81;;;12.35;96.68
23118;BME280;11728;50.624;6.014;2023-05-12T23:38:32;98632.97;;;12.29;97.03
23118;BME280;11728;50.624;6.014;2023-05-12T23:43:52;98639.47;;;12.17;97.58
23118;BME280;11728;50.624;6.014;2023-05-12T23:49:13;98637.78;;;12.14;97.17
23118;BME280;11728;50.624;6.014;2023-05-12T23:54:34;98636.25;;;12.04;97.11
23118;BME280;11728;50.624;6.014;2023-05-12T23:59:55;98638.19;;;11.96;97.39
